Edina, Minnesota
Current Conditions -  °F | °C
As of 6:53 PM on Tuesday 21 Oct 2014 (Local Time) from KMSP Reporting Station
Clear Clear  
Wind Chill: 52°   Ceiling: Unl
Heat Index: 52°   Visibility: 10mi
Dew Point: 39°   Wind: 12mph
Humidity: 61%   Direction: 120°ESE
Pressure: 30.15"   Gusts: NA
Location:  44.91°N, 93.35°W
Report Text: KMSP 212353Z 12010KT 10SM CLR 11/04 A3015 RMK AO2 SLP215 T01110039 10144 20111 53001
Loading
Personal Weather Stations






























Interactive Weather Map New forecast layout! Learn more

10-Day Weather Forecast

Advertisements
Track Severe Weather on mobile